sensor_id;sensor_type;location;lat;lon;timestamp;P1;durP1;ratioP1;P2;durP2;ratioP2
66342;SDS011;53144;51.524;5.080;2024-02-26T00:02:05;3.03;;;2.50;;
66342;SDS011;53144;51.524;5.080;2024-02-26T00:04:30;2.90;;;2.40;;
66342;SDS011;53144;51.524;5.080;2024-02-26T00:09:21;2.53;;;2.33;;
66342;SDS011;53144;51.524;5.080;2024-02-26T00:11:46;3.70;;;2.55;;
66342;SDS011;53144;51.524;5.080;2024-02-26T00:14:12;4.18;;;2.60;;
66342;SDS011;53144;51.524;5.080;2024-02-26T00:16:41;3.80;;;2.63;;
66342;SDS011;53144;51.524;5.080;2024-02-26T00:19:07;6.97;;;2.65;;
66342;SDS011;53144;51.524;5.080;2024-02-26T00:21:32;4.53;;;2.88;;
66342;SDS011;53144;51.524;5.080;2024-02-26T00:26:23;4.97;;;2.92;;
66342;SDS011;53144;51.524;5.080;2024-02-26T00:31:14;5.28;;;2.70;;
66342;SDS011;53144;51.524;5.080;2024-02-26T00:33:39;2.97;;;2.55;;
66342;SDS011;53144;51.524;5.080;2024-02-26T00:36:05;3.13;;;2.70;;
66342;SDS011;53144;51.524;5.080;2024-02-26T00:38:30;3.35;;;2.83;;
66342;SDS011;53144;51.524;5.080;2024-02-26T00:43:21;3.60;;;2.78;;
66342;SDS011;53144;51.524;5.080;2024-02-26T00:48:12;4.05;;;2.90;;
66342;SDS011;53144;51.524;5.080;2024-02-26T00:50:38;3.28;;;2.70;;
66342;SDS011;53144;51.524;5.080;2024-02-26T00:55:30;4.22;;;2.55;;
66342;SDS011;53144;51.524;5.080;2024-02-26T01:00:20;2.47;;;2.25;;
66342;SDS011;53144;51.524;5.080;2024-02-26T01:02:46;3.13;;;2.45;;
66342;SDS011;53144;51.524;5.080;2024-02-26T01:05:12;2.80;;;2.55;;
66342;SDS011;53144;51.524;5.080;2024-02-26T01:07:38;5.03;;;3.17;;
66342;SDS011;53144;51.524;5.080;2024-02-26T01:10:05;3.13;;;2.67;;
66342;SDS011;53144;51.524;5.080;2024-02-26T01:12:33;7.95;;;2.70;;
66342;SDS011;53144;51.524;5.080;2024-02-26T01:14:59;2.90;;;2.70;;
66342;SDS011;53144;51.524;5.080;2024-02-26T01:19:50;4.75;;;2.78;;
66342;SDS011;53144;51.524;5.080;2024-02-26T01:24:41;2.33;;;1.83;;
66342;SDS011;53144;51.524;5.080;2024-02-26T01:27:06;4.80;;;2.78;;
66342;SDS011;53144;51.524;5.080;2024-02-26T01:29:33;2.55;;;2.35;;
66342;SDS011;53144;51.524;5.080;2024-02-26T01:31:59;3.78;;;3.03;;
66342;SDS011;53144;51.524;5.080;2024-02-26T01:34:24;3.25;;;2.75;;
66342;SDS011;53144;51.524;5.080;2024-02-26T01:36:50;3.15;;;2.78;;
66342;SDS011;53144;51.524;5.080;2024-02-26T01:39:15;3.85;;;2.50;;
66342;SDS011;53144;51.524;5.080;2024-02-26T01:44:06;2.50;;;2.30;;
66342;SDS011;53144;51.524;5.080;2024-02-26T01:46:32;2.70;;;2.50;;
66342;SDS011;53144;51.524;5.080;2024-02-26T01:48:59;2.40;;;2.20;;
66342;SDS011;53144;51.524;5.080;2024-02-26T01:51:26;2.65;;;2.30;;
66342;SDS011;53144;51.524;5.080;2024-02-26T01:53:52;5.65;;;3.00;;
66342;SDS011;53144;51.524;5.080;2024-02-26T01:56:18;2.80;;;2.60;;
66342;SDS011;53144;51.524;5.080;2024-02-26T01:58:45;2.58;;;2.35;;
66342;SDS011;53144;51.524;5.080;2024-02-26T02:01:11;3.25;;;2.65;;
66342;SDS011;53144;51.524;5.080;2024-02-26T02:03:37;3.35;;;2.53;;
66342;SDS011;53144;51.524;5.080;2024-02-26T02:06:03;2.45;;;2.28;;
66342;SDS011;53144;51.524;5.080;2024-02-26T02:08:29;3.20;;;2.30;;
66342;SDS011;53144;51.524;5.080;2024-02-26T02:10:54;2.35;;;2.20;;
66342;SDS011;53144;51.524;5.080;2024-02-26T02:13:21;2.42;;;2.10;;
66342;SDS011;53144;51.524;5.080;2024-02-26T02:15:46;2.13;;;2.03;;
66342;SDS011;53144;51.524;5.080;2024-02-26T02:18:12;2.70;;;2.50;;
66342;SDS011;53144;51.524;5.080;2024-02-26T02:20:37;2.60;;;2.40;;
66342;SDS011;53144;51.524;5.080;2024-02-26T02:23:03;2.58;;;2.10;;
66342;SDS011;53144;51.524;5.080;2024-02-26T02:25:28;2.58;;;2.33;;
66342;SDS011;53144;51.524;5.080;2024-02-26T02:27:54;3.03;;;2.53;;
66342;SDS011;53144;51.524;5.080;2024-02-26T02:30:21;2.55;;;2.35;;
66342;SDS011;53144;51.524;5.080;2024-02-26T02:32:51;2.75;;;2.55;;
66342;SDS011;53144;51.524;5.080;2024-02-26T02:35:18;10.18;;;2.80;;
66342;SDS011;53144;51.524;5.080;2024-02-26T02:37:43;4.15;;;2.47;;
66342;SDS011;53144;51.524;5.080;2024-02-26T02:40:09;3.55;;;2.85;;
66342;SDS011;53144;51.524;5.080;2024-02-26T02:42:34;3.05;;;2.75;;
66342;SDS011;53144;51.524;5.080;2024-02-26T02:45:00;4.50;;;2.83;;
66342;SDS011;53144;51.524;5.080;2024-02-26T02:47:25;4.40;;;2.78;;
66342;SDS011;53144;51.524;5.080;2024-02-26T02:49:51;3.78;;;2.80;;
66342;SDS011;53144;51.524;5.080;2024-02-26T02:52:16;3.00;;;2.70;;
66342;SDS011;53144;51.524;5.080;2024-02-26T02:54:42;4.72;;;2.72;;
66342;SDS011;53144;51.524;5.080;2024-02-26T02:57:07;4.80;;;3.28;;
66342;SDS011;53144;51.524;5.080;2024-02-26T02:59:33;4.82;;;3.30;;
66342;SDS011;53144;51.524;5.080;2024-02-26T03:01:59;2.80;;;2.60;;
66342;SDS011;53144;51.524;5.080;2024-02-26T03:04:24;4.45;;;4.10;;
66342;SDS011;53144;51.524;5.080;2024-02-26T03:06:49;4.97;;;3.13;;
66342;SDS011;53144;51.524;5.080;2024-02-26T03:09:15;4.25;;;3.00;;
66342;SDS011;53144;51.524;5.080;2024-02-26T03:11:40;3.55;;;3.22;;
66342;SDS011;53144;51.524;5.080;2024-02-26T03:14:06;3.13;;;2.67;;
66342;SDS011;53144;51.524;5.080;2024-02-26T03:16:31;5.47;;;3.15;;
66342;SDS011;53144;51.524;5.080;2024-02-26T03:18:57;3.70;;;3.03;;
66342;SDS011;53144;51.524;5.080;2024-02-26T03:21:25;3.30;;;2.78;;
66342;SDS011;53144;51.524;5.080;2024-02-26T03:23:50;4.50;;;3.10;;
66342;SDS011;53144;51.524;5.080;2024-02-26T03:26:16;3.22;;;2.92;;
66342;SDS011;53144;51.524;5.080;2024-02-26T03:28:41;3.80;;;3.28;;
66342;SDS011;53144;51.524;5.080;2024-02-26T03:31:07;3.90;;;3.30;;
66342;SDS011;53144;51.524;5.080;2024-02-26T03:33:32;5.90;;;3.55;;
66342;SDS011;53144;51.524;5.080;2024-02-26T03:35:57;3.25;;;2.95;;
66342;SDS011;53144;51.524;5.080;2024-02-26T03:38:23;3.72;;;3.08;;
66342;SDS011;53144;51.524;5.080;2024-02-26T03:40:48;4.00;;;3.30;;
66342;SDS011;53144;51.524;5.080;2024-02-26T03:43:14;3.03;;;2.72;;
66342;SDS011;53144;51.524;5.080;2024-02-26T03:45:39;4.30;;;3.28;;
66342;SDS011;53144;51.524;5.080;2024-02-26T03:48:05;5.00;;;3.40;;
66342;SDS011;53144;51.524;5.080;2024-02-26T03:50:30;8.88;;;4.38;;
66342;SDS011;53144;51.524;5.080;2024-02-26T03:52:56;4.10;;;3.30;;
66342;SDS011;53144;51.524;5.080;2024-02-26T03:55:22;3.00;;;2.80;;
66342;SDS011;53144;51.524;5.080;2024-02-26T03:57:50;3.55;;;3.25;;
66342;SDS011;53144;51.524;5.080;2024-02-26T04:00:18;3.35;;;3.03;;
66342;SDS011;53144;51.524;5.080;2024-02-26T04:02:46;3.80;;;3.47;;
66342;SDS011;53144;51.524;5.080;2024-02-26T04:05:12;4.47;;;3.00;;
66342;SDS011;53144;51.524;5.080;2024-02-26T04:07:38;4.05;;;3.33;;
66342;SDS011;53144;51.524;5.080;2024-02-26T04:10:08;3.75;;;3.33;;
66342;SDS011;53144;51.524;5.080;2024-02-26T04:12:34;5.45;;;3.22;;
66342;SDS011;53144;51.524;5.080;2024-02-26T04:15:00;4.00;;;3.63;;
66342;SDS011;53144;51.524;5.080;2024-02-26T04:17:25;4.03;;;3.72;;
66342;SDS011;53144;51.524;5.080;2024-02-26T04:19:50;3.30;;;3.00;;
66342;SDS011;53144;51.524;5.080;2024-02-26T04:22:16;3.70;;;3.40;;
66342;SDS011;53144;51.524;5.080;2024-02-26T04:24:41;4.57;;;3.90;;
66342;SDS011;53144;51.524;5.080;2024-02-26T04:27:07;3.70;;;3.40;;
66342;SDS011;53144;51.524;5.080;2024-02-26T04:29:32;4.00;;;3.70;;
66342;SDS011;53144;51.524;5.080;2024-02-26T04:31:57;4.55;;;4.15;;
66342;SDS011;53144;51.524;5.080;2024-02-26T04:34:23;4.38;;;3.90;;
66342;SDS011;53144;51.524;5.080;2024-02-26T04:36:48;4.40;;;3.50;;
66342;SDS011;53144;51.524;5.080;2024-02-26T04:39:13;4.68;;;4.28;;
66342;SDS011;53144;51.524;5.080;2024-02-26T04:41:39;4.15;;;3.85;;
66342;SDS011;53144;51.524;5.080;2024-02-26T04:44:05;4.95;;;3.38;;
66342;SDS011;53144;51.524;5.080;2024-02-26T04:46:30;3.50;;;3.20;;
66342;SDS011;53144;51.524;5.080;2024-02-26T04:48:55;3.22;;;2.92;;
66342;SDS011;53144;51.524;5.080;2024-02-26T04:51:21;3.15;;;2.95;;
66342;SDS011;53144;51.524;5.080;2024-02-26T04:53:47;4.88;;;3.72;;
66342;SDS011;53144;51.524;5.080;2024-02-26T04:56:12;3.42;;;3.13;;
66342;SDS011;53144;51.524;5.080;2024-02-26T04:58:37;3.72;;;3.00;;
66342;SDS011;53144;51.524;5.080;2024-02-26T05:01:03;3.58;;;2.67;;
66342;SDS011;53144;51.524;5.080;2024-02-26T05:03:29;4.30;;;4.00;;
66342;SDS011;53144;51.524;5.080;2024-02-26T05:05:54;3.13;;;2.92;;
66342;SDS011;53144;51.524;5.080;2024-02-26T05:08:22;3.38;;;3.13;;
66342;SDS011;53144;51.524;5.080;2024-02-26T05:10:50;4.47;;;4.18;;
66342;SDS011;53144;51.524;5.080;2024-02-26T05:13:16;3.92;;;3.63;;
66342;SDS011;53144;51.524;5.080;2024-02-26T05:15:43;6.32;;;3.33;;
66342;SDS011;53144;51.524;5.080;2024-02-26T05:18:08;4.15;;;3.53;;
66342;SDS011;53144;51.524;5.080;2024-02-26T05:20:34;6.32;;;5.40;;
66342;SDS011;53144;51.524;5.080;2024-02-26T05:23:01;3.88;;;3.47;;
66342;SDS011;53144;51.524;5.080;2024-02-26T05:25:26;3.78;;;3.47;;
66342;SDS011;53144;51.524;5.080;2024-02-26T05:27:52;3.58;;;3.28;;
66342;SDS011;53144;51.524;5.080;2024-02-26T05:30:17;3.90;;;3.70;;
66342;SDS011;53144;51.524;5.080;2024-02-26T05:32:43;4.25;;;3.88;;
66342;SDS011;53144;51.524;5.080;2024-02-26T05:35:08;3.63;;;3.33;;
66342;SDS011;53144;51.524;5.080;2024-02-26T05:37:34;4.57;;;4.22;;
66342;SDS011;53144;51.524;5.080;2024-02-26T05:39:59;3.88;;;3.58;;
66342;SDS011;53144;51.524;5.080;2024-02-26T05:42:24;5.63;;;5.22;;
66342;SDS011;53144;51.524;5.080;2024-02-26T05:44:50;6.20;;;5.05;;
66342;SDS011;53144;51.524;5.080;2024-02-26T05:47:16;3.83;;;3.45;;
66342;SDS011;53144;51.524;5.080;2024-02-26T05:49:42;3.10;;;2.80;;
66342;SDS011;53144;51.524;5.080;2024-02-26T05:52:08;4.60;;;4.28;;
66342;SDS011;53144;51.524;5.080;2024-02-26T05:54:33;3.00;;;2.80;;
66342;SDS011;53144;51.524;5.080;2024-02-26T05:56:58;4.45;;;4.10;;
66342;SDS011;53144;51.524;5.080;2024-02-26T05:59:24;3.42;;;3.17;;
66342;SDS011;53144;51.524;5.080;2024-02-26T06:01:49;6.65;;;6.10;;
66342;SDS011;53144;51.524;5.080;2024-02-26T06:04:15;8.02;;;7.53;;
66342;SDS011;53144;51.524;5.080;2024-02-26T06:06:42;6.57;;;6.07;;
66342;SDS011;53144;51.524;5.080;2024-02-26T06:09:09;5.10;;;4.65;;
66342;SDS011;53144;51.524;5.080;2024-02-26T06:11:35;10.45;;;9.73;;
66342;SDS011;53144;51.524;5.080;2024-02-26T06:14:00;4.55;;;4.15;;
66342;SDS011;53144;51.524;5.080;2024-02-26T06:16:26;5.28;;;4.90;;
66342;SDS011;53144;51.524;5.080;2024-02-26T06:21:18;3.80;;;3.47;;
66342;SDS011;53144;51.524;5.080;2024-02-26T06:23:43;5.80;;;5.03;;
66342;SDS011;53144;51.524;5.080;2024-02-26T06:26:08;4.63;;;4.22;;
66342;SDS011;53144;51.524;5.080;2024-02-26T06:28:35;5.72;;;4.45;;
66342;SDS011;53144;51.524;5.080;2024-02-26T06:31:01;6.68;;;6.15;;
66342;SDS011;53144;51.524;5.080;2024-02-26T06:33:26;4.03;;;3.72;;
66342;SDS011;53144;51.524;5.080;2024-02-26T06:35:52;4.25;;;3.85;;
66342;SDS011;53144;51.524;5.080;2024-02-26T06:38:17;4.25;;;3.90;;
66342;SDS011;53144;51.524;5.080;2024-02-26T06:40:43;6.70;;;4.95;;
66342;SDS011;53144;51.524;5.080;2024-02-26T06:45:34;6.07;;;5.57;;
66342;SDS011;53144;51.524;5.080;2024-02-26T06:48:00;4.60;;;4.30;;
66342;SDS011;53144;51.524;5.080;2024-02-26T06:50:25;4.60;;;4.28;;
66342;SDS011;53144;51.524;5.080;2024-02-26T06:52:51;4.97;;;4.57;;
66342;SDS011;53144;51.524;5.080;2024-02-26T06:55:16;6.03;;;5.53;;
66342;SDS011;53144;51.524;5.080;2024-02-26T06:57:42;5.43;;;4.93;;
66342;SDS011;53144;51.524;5.080;2024-02-26T07:00:07;4.65;;;4.20;;
66342;SDS011;53144;51.524;5.080;2024-02-26T07:02:33;4.55;;;4.25;;
66342;SDS011;53144;51.524;5.080;2024-02-26T07:04:59;3.92;;;3.28;;
66342;SDS011;53144;51.524;5.080;2024-02-26T07:07:24;6.53;;;4.78;;
66342;SDS011;53144;51.524;5.080;2024-02-26T07:09:50;5.25;;;4.28;;
66342;SDS011;53144;51.524;5.080;2024-02-26T07:12:15;5.82;;;5.28;;
66342;SDS011;53144;51.524;5.080;2024-02-26T07:14:41;4.60;;;4.20;;
66342;SDS011;53144;51.524;5.080;2024-02-26T07:17:07;5.25;;;3.25;;
66342;SDS011;53144;51.524;5.080;2024-02-26T07:19:33;5.95;;;5.40;;
66342;SDS011;53144;51.524;5.080;2024-02-26T07:26:51;6.80;;;6.30;;
66342;SDS011;53144;51.524;5.080;2024-02-26T07:29:19;5.97;;;5.57;;
66342;SDS011;53144;51.524;5.080;2024-02-26T07:31:45;6.07;;;5.47;;
66342;SDS011;53144;51.524;5.080;2024-02-26T07:34:11;3.72;;;3.42;;
66342;SDS011;53144;51.524;5.080;2024-02-26T07:36:36;8.02;;;7.35;;
66342;SDS011;53144;51.524;5.080;2024-02-26T07:39:02;5.47;;;4.97;;
66342;SDS011;53144;51.524;5.080;2024-02-26T07:41:27;5.47;;;4.18;;
66342;SDS011;53144;51.524;5.080;2024-02-26T07:43:52;4.90;;;4.30;;
66342;SDS011;53144;51.524;5.080;2024-02-26T07:46:18;6.10;;;4.40;;
66342;SDS011;53144;51.524;5.080;2024-02-26T07:48:43;5.25;;;4.63;;
66342;SDS011;53144;51.524;5.080;2024-02-26T07:51:08;5.68;;;4.38;;
66342;SDS011;53144;51.524;5.080;2024-02-26T07:53:37;3.67;;;3.38;;
66342;SDS011;53144;51.524;5.080;2024-02-26T07:56:02;6.15;;;5.75;;
66342;SDS011;53144;51.524;5.080;2024-02-26T07:58:28;5.38;;;4.88;;
66342;SDS011;53144;51.524;5.080;2024-02-26T08:00:53;4.38;;;3.97;;
66342;SDS011;53144;51.524;5.080;2024-02-26T08:03:19;3.85;;;3.13;;
66342;SDS011;53144;51.524;5.080;2024-02-26T08:05:44;3.97;;;3.65;;
66342;SDS011;53144;51.524;5.080;2024-02-26T08:08:10;4.40;;;4.00;;
66342;SDS011;53144;51.524;5.080;2024-02-26T08:10:35;5.03;;;4.50;;
66342;SDS011;53144;51.524;5.080;2024-02-26T08:13:00;3.42;;;2.90;;
66342;SDS011;53144;51.524;5.080;2024-02-26T08:15:33;5.40;;;4.90;;
66342;SDS011;53144;51.524;5.080;2024-02-26T08:18:00;6.65;;;5.60;;
66342;SDS011;53144;51.524;5.080;2024-02-26T08:20:28;4.00;;;3.70;;
66342;SDS011;53144;51.524;5.080;2024-02-26T08:22:54;4.80;;;4.32;;
66342;SDS011;53144;51.524;5.080;2024-02-26T08:25:20;10.15;;;4.88;;
66342;SDS011;53144;51.524;5.080;2024-02-26T08:27:45;4.80;;;4.28;;
66342;SDS011;53144;51.524;5.080;2024-02-26T08:30:12;3.72;;;3.08;;
66342;SDS011;53144;51.524;5.080;2024-02-26T08:32:41;6.22;;;4.03;;
66342;SDS011;53144;51.524;5.080;2024-02-26T08:35:07;4.13;;;3.83;;
66342;SDS011;53144;51.524;5.080;2024-02-26T08:37:33;4.93;;;4.53;;
66342;SDS011;53144;51.524;5.080;2024-02-26T08:39:58;4.05;;;3.75;;
66342;SDS011;53144;51.524;5.080;2024-02-26T08:42:24;5.85;;;5.10;;
66342;SDS011;53144;51.524;5.080;2024-02-26T08:44:51;6.80;;;4.90;;
66342;SDS011;53144;51.524;5.080;2024-02-26T08:47:19;6.45;;;4.72;;
66342;SDS011;53144;51.524;5.080;2024-02-26T08:49:45;3.85;;;3.50;;
66342;SDS011;53144;51.524;5.080;2024-02-26T08:54:36;5.25;;;4.85;;
66342;SDS011;53144;51.524;5.080;2024-02-26T08:57:02;4.38;;;3.97;;
66342;SDS011;53144;51.524;5.080;2024-02-26T08:59:28;5.05;;;4.43;;
66342;SDS011;53144;51.524;5.080;2024-02-26T09:01:54;5.35;;;4.85;;
66342;SDS011;53144;51.524;5.080;2024-02-26T09:04:19;3.78;;;3.47;;
66342;SDS011;53144;51.524;5.080;2024-02-26T09:06:46;4.80;;;4.32;;
66342;SDS011;53144;51.524;5.080;2024-02-26T09:09:12;4.50;;;4.10;;
66342;SDS011;53144;51.524;5.080;2024-02-26T09:11:37;5.65;;;4.43;;
66342;SDS011;53144;51.524;5.080;2024-02-26T09:14:03;6.30;;;4.63;;
66342;SDS011;53144;51.524;5.080;2024-02-26T09:16:29;6.53;;;4.20;;
66342;SDS011;53144;51.524;5.080;2024-02-26T09:18:55;6.40;;;3.72;;
66342;SDS011;53144;51.524;5.080;2024-02-26T09:21:21;6.80;;;5.78;;
66342;SDS011;53144;51.524;5.080;2024-02-26T09:23:52;6.93;;;4.85;;
66342;SDS011;53144;51.524;5.080;2024-02-26T09:26:18;7.10;;;5.68;;
66342;SDS011;53144;51.524;5.080;2024-02-26T09:28:44;6.32;;;5.07;;
66342;SDS011;53144;51.524;5.080;2024-02-26T09:31:10;5.72;;;5.13;;
66342;SDS011;53144;51.524;5.080;2024-02-26T09:33:35;6.45;;;5.15;;
66342;SDS011;53144;51.524;5.080;2024-02-26T09:36:01;4.88;;;4.38;;
66342;SDS011;53144;51.524;5.080;2024-02-26T09:40:53;7.82;;;5.80;;
66342;SDS011;53144;51.524;5.080;2024-02-26T09:43:21;7.75;;;5.97;;
66342;SDS011;53144;51.524;5.080;2024-02-26T09:45:49;8.60;;;6.28;;
66342;SDS011;53144;51.524;5.080;2024-02-26T09:48:17;8.35;;;6.72;;
66342;SDS011;53144;51.524;5.080;2024-02-26T09:50:43;8.18;;;6.88;;
66342;SDS011;53144;51.524;5.080;2024-02-26T09:53:09;9.68;;;6.47;;
66342;SDS011;53144;51.524;5.080;2024-02-26T09:55:36;7.75;;;6.20;;
66342;SDS011;53144;51.524;5.080;2024-02-26T09:58:01;10.93;;;6.93;;
66342;SDS011;53144;51.524;5.080;2024-02-26T10:00:30;7.90;;;6.78;;
66342;SDS011;53144;51.524;5.080;2024-02-26T10:02:58;8.07;;;6.70;;
66342;SDS011;53144;51.524;5.080;2024-02-26T10:05:28;5.88;;;5.07;;
66342;SDS011;53144;51.524;5.080;2024-02-26T10:07:55;9.40;;;7.10;;
66342;SDS011;53144;51.524;5.080;2024-02-26T10:10:23;7.05;;;5.85;;
66342;SDS011;53144;51.524;5.080;2024-02-26T10:12:50;9.25;;;6.75;;
66342;SDS011;53144;51.524;5.080;2024-02-26T10:15:15;10.93;;;7.35;;
66342;SDS011;53144;51.524;5.080;2024-02-26T10:17:41;9.63;;;7.57;;
66342;SDS011;53144;51.524;5.080;2024-02-26T10:20:13;8.52;;;7.15;;
66342;SDS011;53144;51.524;5.080;2024-02-26T10:22:43;12.60;;;7.15;;
66342;SDS011;53144;51.524;5.080;2024-02-26T10:25:09;7.22;;;5.85;;
66342;SDS011;53144;51.524;5.080;2024-02-26T10:27:35;4.93;;;4.18;;
66342;SDS011;53144;51.524;5.080;2024-02-26T10:30:04;9.45;;;4.95;;
66342;SDS011;53144;51.524;5.080;2024-02-26T10:32:40;8.60;;;7.03;;
66342;SDS011;53144;51.524;5.080;2024-02-26T10:35:08;10.82;;;7.65;;
66342;SDS011;53144;51.524;5.080;2024-02-26T10:37:34;10.35;;;8.15;;
66342;SDS011;53144;51.524;5.080;2024-02-26T10:39:59;5.47;;;4.63;;
66342;SDS011;53144;51.524;5.080;2024-02-26T10:42:25;11.30;;;8.23;;
66342;SDS011;53144;51.524;5.080;2024-02-26T10:44:51;10.30;;;7.32;;
66342;SDS011;53144;51.524;5.080;2024-02-26T10:47:16;9.02;;;6.63;;
66342;SDS011;53144;51.524;5.080;2024-02-26T10:49:45;11.30;;;7.60;;
66342;SDS011;53144;51.524;5.080;2024-02-26T10:52:13;9.50;;;7.30;;
66342;SDS011;53144;51.524;5.080;2024-02-26T10:54:40;9.95;;;7.25;;
66342;SDS011;53144;51.524;5.080;2024-02-26T10:57:06;12.05;;;7.82;;
66342;SDS011;53144;51.524;5.080;2024-02-26T10:59:34;11.90;;;7.72;;
66342;SDS011;53144;51.524;5.080;2024-02-26T11:02:01;11.65;;;8.05;;
66342;SDS011;53144;51.524;5.080;2024-02-26T11:04:28;10.05;;;7.40;;
66342;SDS011;53144;51.524;5.080;2024-02-26T11:06:56;7.63;;;6.10;;
66342;SDS011;53144;51.524;5.080;2024-02-26T11:09:22;13.30;;;8.15;;
66342;SDS011;53144;51.524;5.080;2024-02-26T11:11:49;10.68;;;8.43;;
66342;SDS011;53144;51.524;5.080;2024-02-26T11:14:19;10.98;;;8.00;;
66342;SDS011;53144;51.524;5.080;2024-02-26T11:16:47;10.93;;;8.50;;
66342;SDS011;53144;51.524;5.080;2024-02-26T11:19:12;11.82;;;8.52;;
66342;SDS011;53144;51.524;5.080;2024-02-26T11:21:39;9.32;;;7.13;;
66342;SDS011;53144;51.524;5.080;2024-02-26T11:24:14;8.52;;;6.30;;
66342;SDS011;53144;51.524;5.080;2024-02-26T11:26:44;11.60;;;8.68;;
66342;SDS011;53144;51.524;5.080;2024-02-26T11:29:13;13.10;;;8.52;;
66342;SDS011;53144;51.524;5.080;2024-02-26T11:31:42;13.60;;;9.15;;
66342;SDS011;53144;51.524;5.080;2024-02-26T11:34:08;13.00;;;9.13;;
66342;SDS011;53144;51.524;5.080;2024-02-26T11:36:34;10.73;;;7.65;;
66342;SDS011;53144;51.524;5.080;2024-02-26T11:39:02;10.75;;;7.57;;
66342;SDS011;53144;51.524;5.080;2024-02-26T11:41:29;12.15;;;8.38;;
66342;SDS011;53144;51.524;5.080;2024-02-26T11:43:58;13.63;;;8.80;;
66342;SDS011;53144;51.524;5.080;2024-02-26T11:46:59;6.30;;;5.22;;
66342;SDS011;53144;51.524;5.080;2024-02-26T11:51:52;17.35;;;8.25;;
66342;SDS011;53144;51.524;5.080;2024-02-26T11:59:46;9.90;;;8.93;;
66342;SDS011;53144;51.524;5.080;2024-02-26T12:04:58;15.95;;;11.93;;
66342;SDS011;53144;51.524;5.080;2024-02-26T12:07:23;10.20;;;8.80;;
66342;SDS011;53144;51.524;5.080;2024-02-26T12:09:49;6.63;;;5.95;;
66342;SDS011;53144;51.524;5.080;2024-02-26T12:12:17;9.55;;;8.02;;
66342;SDS011;53144;51.524;5.080;2024-02-26T12:14:51;12.23;;;9.93;;
66342;SDS011;53144;51.524;5.080;2024-02-26T12:17:21;9.77;;;7.65;;
66342;SDS011;53144;51.524;5.080;2024-02-26T12:19:48;10.82;;;8.88;;
66342;SDS011;53144;51.524;5.080;2024-02-26T12:22:15;10.50;;;7.93;;
66342;SDS011;53144;51.524;5.080;2024-02-26T12:24:41;12.23;;;8.95;;
66342;SDS011;53144;51.524;5.080;2024-02-26T12:27:07;10.55;;;8.18;;
66342;SDS011;53144;51.524;5.080;2024-02-26T12:29:33;9.10;;;6.75;;
66342;SDS011;53144;51.524;5.080;2024-02-26T12:31:58;9.68;;;7.55;;
66342;SDS011;53144;51.524;5.080;2024-02-26T12:34:24;8.05;;;6.40;;
66342;SDS011;53144;51.524;5.080;2024-02-26T12:39:16;10.93;;;7.68;;
66342;SDS011;53144;51.524;5.080;2024-02-26T12:41:41;10.88;;;8.20;;
66342;SDS011;53144;51.524;5.080;2024-02-26T12:44:14;8.77;;;7.80;;
66342;SDS011;53144;51.524;5.080;2024-02-26T12:49:05;6.30;;;4.68;;
66342;SDS011;53144;51.524;5.080;2024-02-26T12:51:31;10.82;;;6.95;;
66342;SDS011;53144;51.524;5.080;2024-02-26T12:53:58;10.20;;;8.02;;
66342;SDS011;53144;51.524;5.080;2024-02-26T12:56:24;5.20;;;4.53;;
66342;SDS011;53144;51.524;5.080;2024-02-26T12:58:52;9.82;;;7.97;;
66342;SDS011;53144;51.524;5.080;2024-02-26T13:03:45;6.60;;;5.25;;
66342;SDS011;53144;51.524;5.080;2024-02-26T13:06:12;9.85;;;7.85;;
66342;SDS011;53144;51.524;5.080;2024-02-26T13:08:38;9.77;;;6.30;;
66342;SDS011;53144;51.524;5.080;2024-02-26T13:11:03;7.10;;;6.28;;
66342;SDS011;53144;51.524;5.080;2024-02-26T13:13:29;9.95;;;7.75;;
66342;SDS011;53144;51.524;5.080;2024-02-26T13:16:03;9.57;;;6.85;;
66342;SDS011;53144;51.524;5.080;2024-02-26T13:18:33;10.18;;;7.50;;
66342;SDS011;53144;51.524;5.080;2024-02-26T13:21:07;8.68;;;7.38;;
66342;SDS011;53144;51.524;5.080;2024-02-26T13:26:02;9.10;;;7.80;;
66342;SDS011;53144;51.524;5.080;2024-02-26T13:28:28;10.07;;;6.78;;
66342;SDS011;53144;51.524;5.080;2024-02-26T13:30:54;13.10;;;11.98;;
66342;SDS011;53144;51.524;5.080;2024-02-26T13:33:25;8.30;;;6.28;;
66342;SDS011;53144;51.524;5.080;2024-02-26T13:35:51;8.85;;;7.07;;
66342;SDS011;53144;51.524;5.080;2024-02-26T13:38:17;9.30;;;6.88;;
66342;SDS011;53144;51.524;5.080;2024-02-26T13:40:43;12.68;;;6.30;;
66342;SDS011;53144;51.524;5.080;2024-02-26T13:43:09;10.77;;;7.63;;
66342;SDS011;53144;51.524;5.080;2024-02-26T13:45:35;9.50;;;7.22;;
66342;SDS011;53144;51.524;5.080;2024-02-26T13:48:02;8.77;;;7.35;;
66342;SDS011;53144;51.524;5.080;2024-02-26T13:50:28;10.80;;;7.60;;
66342;SDS011;53144;51.524;5.080;2024-02-26T13:52:54;9.85;;;7.47;;
66342;SDS011;53144;51.524;5.080;2024-02-26T13:55:21;9.20;;;6.82;;
66342;SDS011;53144;51.524;5.080;2024-02-26T13:57:51;9.52;;;7.18;;
66342;SDS011;53144;51.524;5.080;2024-02-26T14:00:18;8.63;;;5.90;;
66342;SDS011;53144;51.524;5.080;2024-02-26T14:02:44;6.68;;;5.15;;
66342;SDS011;53144;51.524;5.080;2024-02-26T14:05:10;9.15;;;6.25;;
66342;SDS011;53144;51.524;5.080;2024-02-26T14:07:35;7.78;;;6.13;;
66342;SDS011;53144;51.524;5.080;2024-02-26T14:10:01;7.75;;;6.47;;
66342;SDS011;53144;51.524;5.080;2024-02-26T14:12:26;9.73;;;6.38;;
66342;SDS011;53144;51.524;5.080;2024-02-26T14:14:53;8.07;;;5.75;;
66342;SDS011;53144;51.524;5.080;2024-02-26T14:17:20;7.55;;;5.25;;
66342;SDS011;53144;51.524;5.080;2024-02-26T14:19:46;8.93;;;6.53;;
66342;SDS011;53144;51.524;5.080;2024-02-26T14:22:13;8.23;;;6.20;;
66342;SDS011;53144;51.524;5.080;2024-02-26T14:24:39;7.50;;;6.20;;
66342;SDS011;53144;51.524;5.080;2024-02-26T14:27:06;7.38;;;5.78;;
66342;SDS011;53144;51.524;5.080;2024-02-26T14:29:33;5.53;;;5.03;;
66342;SDS011;53144;51.524;5.080;2024-02-26T14:31:59;8.20;;;6.10;;
66342;SDS011;53144;51.524;5.080;2024-02-26T14:34:26;8.07;;;6.15;;
66342;SDS011;53144;51.524;5.080;2024-02-26T14:36:52;7.43;;;5.57;;
66342;SDS011;53144;51.524;5.080;2024-02-26T14:39:17;6.88;;;5.93;;
66342;SDS011;53144;51.524;5.080;2024-02-26T14:41:43;6.47;;;5.68;;
66342;SDS011;53144;51.524;5.080;2024-02-26T14:44:08;7.85;;;6.30;;
66342;SDS011;53144;51.524;5.080;2024-02-26T14:46:33;6.93;;;6.03;;
66342;SDS011;53144;51.524;5.080;2024-02-26T14:48:59;8.48;;;6.13;;
66342;SDS011;53144;51.524;5.080;2024-02-26T14:51:24;8.32;;;6.07;;
66342;SDS011;53144;51.524;5.080;2024-02-26T14:53:50;7.75;;;6.00;;
66342;SDS011;53144;51.524;5.080;2024-02-26T14:56:17;6.97;;;5.20;;
66342;SDS011;53144;51.524;5.080;2024-02-26T14:58:42;7.43;;;5.43;;
66342;SDS011;53144;51.524;5.080;2024-02-26T15:01:07;5.63;;;5.03;;
66342;SDS011;53144;51.524;5.080;2024-02-26T15:03:33;7.05;;;5.50;;
66342;SDS011;53144;51.524;5.080;2024-02-26T15:08:24;9.63;;;6.28;;
66342;SDS011;53144;51.524;5.080;2024-02-26T15:10:49;8.32;;;6.40;;
66342;SDS011;53144;51.524;5.080;2024-02-26T15:15:41;7.82;;;5.20;;
66342;SDS011;53144;51.524;5.080;2024-02-26T15:20:33;8.27;;;5.77;;
66342;SDS011;53144;51.524;5.080;2024-02-26T15:22:59;8.50;;;5.57;;
66342;SDS011;53144;51.524;5.080;2024-02-26T15:25:24;6.82;;;5.97;;
66342;SDS011;53144;51.524;5.080;2024-02-26T15:27:50;7.22;;;5.55;;
66342;SDS011;53144;51.524;5.080;2024-02-26T15:30:15;8.38;;;6.13;;
66342;SDS011;53144;51.524;5.080;2024-02-26T15:32:41;6.07;;;5.32;;
66342;SDS011;53144;51.524;5.080;2024-02-26T15:35:08;7.53;;;5.45;;
66342;SDS011;53144;51.524;5.080;2024-02-26T15:37:35;6.82;;;5.45;;
66342;SDS011;53144;51.524;5.080;2024-02-26T15:40:00;7.93;;;5.90;;
66342;SDS011;53144;51.524;5.080;2024-02-26T15:44:51;10.05;;;6.00;;
66342;SDS011;53144;51.524;5.080;2024-02-26T15:47:16;13.57;;;5.50;;
66342;SDS011;53144;51.524;5.080;2024-02-26T15:49:42;10.27;;;5.88;;